createdAt,value
2018-09-06T00:00:51.265Z,19.86
2018-09-06T00:03:18.952Z,19.94
2018-09-06T00:05:46.600Z,19.98
2018-09-06T00:08:14.243Z,19.96
2018-09-06T00:10:42.979Z,19.98
2018-09-06T00:13:10.607Z,19.99
2018-09-06T00:15:38.230Z,19.98
2018-09-06T00:18:05.866Z,20.00
2018-09-06T00:20:33.532Z,20.04
2018-09-06T00:23:01.424Z,20.06
2018-09-06T00:25:29.067Z,20.03
2018-09-06T00:27:56.747Z,20.02
2018-09-06T00:30:24.426Z,20.02
2018-09-06T00:32:52.039Z,20.00
2018-09-06T00:35:19.648Z,20.03
2018-09-06T00:37:47.316Z,19.94
2018-09-06T00:40:14.952Z,19.94
2018-09-06T00:42:42.587Z,19.92
2018-09-06T00:45:10.264Z,19.91
2018-09-06T00:47:37.962Z,19.91
2018-09-06T00:50:10.190Z,19.90
2018-09-06T00:52:37.849Z,19.87
2018-09-06T00:55:05.642Z,19.84
2018-09-06T00:57:33.385Z,19.81
2018-09-06T01:00:00.993Z,19.78
2018-09-06T01:02:28.580Z,19.75
2018-09-06T01:04:56.317Z,19.70
2018-09-06T01:07:29.127Z,19.73
2018-09-06T01:09:56.824Z,19.74
2018-09-06T01:12:24.438Z,19.70
2018-09-06T01:14:52.073Z,19.62
2018-09-06T01:17:19.740Z,19.62
2018-09-06T01:19:47.403Z,19.59
2018-09-06T01:22:14.998Z,19.60
2018-09-06T01:24:42.652Z,19.58
2018-09-06T01:27:10.265Z,19.59
2018-09-06T01:29:37.852Z,19.61
2018-09-06T01:32:05.549Z,19.59
2018-09-06T01:34:33.272Z,19.58
2018-09-06T01:37:05.430Z,19.62
2018-09-06T01:39:33.069Z,19.64
2018-09-06T01:42:00.694Z,19.66
2018-09-06T01:44:28.359Z,19.64
2018-09-06T01:46:55.951Z,19.73
2018-09-06T01:49:23.635Z,19.74
2018-09-06T01:51:51.330Z,19.75
2018-09-06T01:54:18.916Z,19.73
2018-09-06T01:56:46.576Z,19.70
2018-09-06T01:59:14.338Z,19.67
2018-09-06T02:01:42.223Z,19.62
2018-09-06T02:04:10.706Z,19.51
2018-09-06T02:06:38.610Z,19.43
2018-09-06T02:09:07.674Z,19.41
2018-09-06T02:11:35.809Z,19.39
2018-09-06T02:14:03.629Z,19.38
2018-09-06T02:16:31.495Z,19.37
2018-09-06T02:18:59.107Z,19.42
2018-09-06T02:21:26.775Z,19.46
2018-09-06T02:23:54.392Z,19.49
2018-09-06T02:26:22.038Z,19.47
2018-09-06T02:28:49.710Z,19.46
2018-09-06T02:31:17.353Z,19.47
2018-09-06T02:33:45.000Z,19.52
2018-09-06T02:36:12.651Z,19.50
2018-09-06T02:38:40.284Z,19.49
2018-09-06T02:41:07.900Z,19.50
2018-09-06T02:43:35.596Z,19.48
2018-09-06T02:46:03.303Z,19.43
2018-09-06T02:48:36.484Z,19.42
2018-09-06T02:51:19.934Z,19.37
2018-09-06T02:53:47.686Z,19.32
2018-09-06T02:56:15.935Z,19.28
2018-09-06T02:58:43.554Z,19.26
2018-09-06T03:01:11.188Z,19.23
2018-09-06T03:03:38.870Z,19.23
2018-09-06T03:06:07.057Z,19.23
2018-09-06T03:08:34.851Z,19.25
2018-09-06T03:12:07.528Z,19.26
2018-09-06T03:14:35.313Z,19.23
2018-09-06T03:17:02.979Z,19.22
2018-09-06T03:19:30.596Z,19.22
2018-09-06T03:21:58.248Z,19.13
2018-09-06T03:24:26.013Z,19.15
2018-09-06T03:26:53.702Z,19.10
2018-09-06T03:29:21.447Z,19.13
2018-09-06T03:31:49.142Z,19.17
2018-09-06T03:34:16.790Z,19.19
2018-09-06T03:36:44.464Z,19.21
2018-09-06T03:39:12.092Z,19.25
2018-09-06T03:41:39.731Z,19.26
2018-09-06T03:44:07.417Z,19.25
2018-09-06T03:46:35.157Z,19.27
2018-09-06T03:49:02.781Z,19.26
2018-09-06T03:51:30.485Z,19.27
2018-09-06T03:53:58.145Z,19.22
2018-09-06T03:56:25.764Z,19.21
2018-09-06T03:58:53.412Z,19.19
2018-09-06T04:01:21.068Z,19.19
2018-09-06T04:03:48.684Z,19.20
2018-09-06T04:06:16.332Z,19.17
2018-09-06T04:08:44.140Z,19.12
2018-09-06T04:11:11.968Z,19.10
2018-09-06T04:13:39.639Z,19.12
2018-09-06T04:16:07.283Z,19.09
2018-09-06T04:18:35.009Z,19.06
2018-09-06T04:21:02.668Z,19.05
2018-09-06T04:23:30.340Z,19.04
2018-09-06T04:25:58.042Z,19.06
2018-09-06T04:28:25.711Z,19.00
2018-09-06T04:30:53.428Z,19.01
2018-09-06T04:33:21.037Z,19.01
2018-09-06T04:35:48.707Z,18.99
2018-09-06T04:38:16.335Z,18.95
2018-09-06T04:40:43.965Z,18.88
2018-09-06T04:43:11.614Z,18.79
2018-09-06T04:45:39.224Z,18.74
2018-09-06T04:48:06.921Z,18.73
2018-09-06T04:50:34.532Z,18.76
2018-09-06T04:53:02.135Z,18.71
2018-09-06T04:55:29.742Z,18.71
2018-09-06T04:57:57.373Z,18.69
2018-09-06T05:00:25.037Z,18.70
2018-09-06T05:02:52.643Z,18.71
2018-09-06T05:05:20.321Z,18.72
2018-09-06T05:07:48.021Z,18.72
2018-09-06T05:10:15.670Z,18.71
2018-09-06T05:12:43.289Z,18.71
2018-09-06T05:15:10.919Z,18.73
2018-09-06T05:17:38.505Z,18.76
2018-09-06T05:20:06.327Z,18.79
2018-09-06T05:22:33.953Z,18.80
2018-09-06T05:25:01.606Z,18.80
2018-09-06T05:27:29.544Z,18.85
2018-09-06T05:29:57.160Z,18.91
2018-09-06T05:32:24.847Z,18.99
2018-09-06T05:34:52.491Z,19.04
2018-09-06T05:37:20.085Z,19.01
2018-09-06T05:39:47.707Z,19.05
2018-09-06T05:42:15.427Z,19.11
2018-09-06T05:44:43.256Z,19.21
2018-09-06T05:47:10.900Z,19.31
2018-09-06T05:49:38.551Z,19.38
2018-09-06T05:52:06.294Z,19.51
2018-09-06T05:54:33.926Z,19.64
2018-09-06T05:57:01.666Z,19.82
2018-09-06T05:59:29.304Z,19.93
2018-09-06T06:01:57.015Z,19.98
2018-09-06T06:04:24.686Z,20.13
2018-09-06T06:06:52.327Z,20.26
2018-09-06T06:09:19.964Z,20.34
2018-09-06T06:11:47.705Z,20.32
2018-09-06T06:14:15.327Z,20.34
2018-09-06T06:16:42.942Z,20.54
2018-09-06T06:19:10.661Z,20.65
2018-09-06T06:21:38.299Z,20.68
2018-09-06T06:24:06.137Z,20.66
2018-09-06T06:26:33.784Z,20.64
2018-09-06T06:29:01.426Z,20.61
2018-09-06T06:31:29.050Z,20.62
2018-09-06T06:33:56.761Z,20.61
2018-09-06T06:36:24.396Z,20.82
2018-09-06T06:38:52.145Z,21.13
2018-09-06T06:41:19.816Z,21.32
2018-09-06T06:43:47.423Z,21.59
2018-09-06T06:46:15.036Z,21.89
2018-09-06T06:48:42.675Z,22.19
2018-09-06T06:51:10.330Z,22.47
2018-09-06T06:53:37.954Z,22.73
2018-09-06T06:56:05.770Z,22.97
2018-09-06T06:58:33.440Z,23.23
2018-09-06T07:01:01.102Z,23.56
2018-09-06T07:03:28.738Z,23.83
2018-09-06T07:05:56.368Z,24.04
2018-09-06T07:08:23.973Z,24.27
2018-09-06T07:10:51.630Z,24.43
2018-09-06T07:13:19.256Z,24.65
2018-09-06T07:15:46.886Z,24.83
2018-09-06T07:18:14.669Z,24.86
2018-09-06T07:20:42.309Z,25.05
2018-09-06T07:23:09.920Z,25.36
2018-09-06T07:25:37.610Z,25.55
2018-09-06T07:28:05.280Z,25.83
2018-09-06T07:30:32.924Z,25.98
2018-09-06T07:33:00.607Z,26.18
2018-09-06T07:35:28.247Z,26.42
2018-09-06T07:37:55.887Z,26.70
2018-09-06T07:40:23.516Z,26.95
2018-09-06T07:42:51.125Z,27.26
2018-09-06T07:45:18.744Z,27.51
2018-09-06T07:47:46.400Z,27.87
2018-09-06T07:50:14.026Z,28.19
2018-09-06T07:52:41.692Z,28.50
2018-09-06T07:55:09.366Z,28.85
2018-09-06T07:57:37.032Z,29.24
2018-09-06T08:00:05.283Z,29.67
2018-09-06T08:02:32.972Z,30.15
2018-09-06T08:05:00.599Z,30.74
2018-09-06T08:07:28.226Z,31.32
2018-09-06T08:09:55.950Z,31.87
2018-09-06T08:12:23.668Z,32.23
2018-09-06T08:14:51.301Z,32.42
2018-09-06T08:17:19.002Z,33.05
2018-09-06T08:19:46.652Z,33.47
2018-09-06T08:22:14.264Z,33.55
2018-09-06T08:24:41.936Z,33.55
2018-09-06T08:27:09.581Z,34.06
2018-09-06T08:29:37.245Z,34.37
2018-09-06T08:32:04.889Z,34.77
2018-09-06T08:34:32.515Z,34.84
2018-09-06T08:37:00.211Z,34.98
2018-09-06T08:39:27.896Z,35.13
2018-09-06T08:41:55.529Z,35.03
2018-09-06T08:44:23.248Z,35.00
2018-09-06T08:46:50.986Z,35.15
2018-09-06T08:49:18.607Z,35.09
2018-09-06T08:51:46.251Z,35.12
2018-09-06T08:54:13.927Z,35.35
2018-09-06T08:56:41.540Z,35.11
2018-09-06T08:59:09.230Z,35.40
2018-09-06T09:01:37.863Z,35.54
2018-09-06T09:04:06.100Z,35.67
2018-09-06T09:06:33.756Z,35.39
2018-09-06T09:09:01.440Z,35.44
2018-09-06T09:11:29.123Z,35.69
2018-09-06T09:13:56.772Z,35.74
2018-09-06T09:16:24.462Z,35.66
2018-09-06T09:18:52.188Z,35.83
2018-09-06T09:21:19.853Z,35.98
2018-09-06T09:23:47.597Z,36.19
2018-09-06T09:26:15.305Z,36.28
2018-09-06T09:28:42.982Z,36.53
2018-09-06T09:31:10.651Z,36.31
2018-09-06T09:33:38.291Z,36.39
2018-09-06T09:36:06.131Z,36.36
2018-09-06T09:38:33.861Z,36.57
2018-09-06T09:41:01.661Z,36.09
2018-09-06T09:43:29.334Z,35.90
2018-09-06T09:48:24.172Z,36.33
2018-09-06T09:50:51.819Z,36.66
2018-09-06T09:53:19.455Z,36.74
2018-09-06T09:55:47.061Z,36.77
2018-09-06T09:58:14.712Z,36.27
2018-09-06T10:00:42.883Z,34.92
2018-09-06T10:03:16.152Z,34.19
2018-09-06T10:06:47.278Z,34.71
2018-09-06T10:09:16.438Z,34.95
2018-09-06T10:11:44.357Z,35.39
2018-09-06T10:14:12.129Z,36.18
2018-09-06T10:16:39.857Z,36.60
2018-09-06T10:19:07.516Z,36.00
2018-09-06T10:21:35.197Z,35.75
2018-09-06T10:24:02.866Z,34.89
2018-09-06T10:26:30.554Z,34.10
2018-09-06T10:28:58.207Z,33.90
2018-09-06T10:31:25.920Z,34.96
2018-09-06T10:33:53.539Z,35.85
2018-09-06T10:36:21.216Z,36.33
2018-09-06T10:38:48.880Z,36.87
2018-09-06T10:41:16.519Z,37.28
2018-09-06T10:43:44.187Z,37.77
2018-09-06T10:46:11.804Z,36.67
2018-09-06T10:48:39.458Z,36.68
2018-09-06T10:51:07.135Z,37.08
2018-09-06T10:53:34.826Z,37.39
2018-09-06T10:56:02.551Z,38.05
2018-09-06T10:58:30.313Z,38.25
2018-09-06T11:01:03.560Z,38.33
2018-09-06T11:03:31.320Z,38.69
2018-09-06T11:05:59.040Z,38.36
2018-09-06T11:08:26.718Z,37.05
2018-09-06T11:10:54.345Z,36.87
2018-09-06T11:13:22.096Z,35.43
2018-09-06T11:15:49.703Z,33.63
2018-09-06T11:18:17.371Z,32.98
2018-09-06T11:20:45.104Z,32.40
2018-09-06T11:23:12.779Z,31.73
2018-09-06T11:25:40.496Z,31.83
2018-09-06T11:28:08.252Z,31.69
2018-09-06T11:30:35.879Z,31.49
2018-09-06T11:33:03.638Z,31.20
2018-09-06T11:35:31.455Z,31.23
2018-09-06T11:37:59.206Z,31.39
2018-09-06T11:40:26.931Z,31.47
2018-09-06T11:42:54.567Z,33.41
2018-09-06T11:45:22.182Z,35.46
2018-09-06T11:47:49.998Z,35.11
2018-09-06T11:50:17.612Z,34.85
2018-09-06T11:52:45.262Z,36.91
2018-09-06T11:55:12.940Z,38.31
2018-09-06T11:57:40.565Z,39.31
2018-09-06T12:00:08.228Z,39.93
2018-09-06T12:02:35.944Z,40.45
2018-09-06T12:05:03.651Z,40.39
2018-09-06T12:07:31.270Z,40.36
2018-09-06T12:09:59.224Z,40.54
2018-09-06T12:12:26.856Z,40.80
2018-09-06T12:14:54.559Z,41.54
2018-09-06T12:17:22.245Z,41.90
2018-09-06T12:19:49.868Z,41.80
2018-09-06T12:22:17.620Z,41.98
2018-09-06T12:24:45.361Z,41.89
2018-09-06T12:27:13.107Z,42.05
2018-09-06T12:29:40.717Z,42.10
2018-09-06T12:32:08.483Z,43.15
2018-09-06T12:34:36.268Z,43.46
2018-09-06T12:37:08.871Z,43.80
2018-09-06T12:39:36.564Z,43.39
2018-09-06T12:42:04.263Z,42.11
2018-09-06T12:44:31.980Z,42.03
2018-09-06T12:46:59.743Z,40.16
2018-09-06T12:49:27.391Z,40.28
2018-09-06T12:51:55.188Z,40.19
2018-09-06T12:54:22.848Z,40.16
2018-09-06T12:56:50.470Z,38.94
2018-09-06T12:59:18.114Z,38.72
2018-09-06T13:01:45.752Z,40.03
2018-09-06T13:04:13.379Z,39.91
2018-09-06T13:06:41.004Z,38.71
2018-09-06T13:09:09.026Z,37.33
2018-09-06T13:11:37.349Z,36.16
2018-09-06T13:14:05.061Z,35.31
2018-09-06T13:16:32.688Z,34.49
2018-09-06T13:19:00.366Z,33.88
2018-09-06T13:21:28.036Z,33.40
2018-09-06T13:23:55.649Z,32.99
2018-09-06T13:26:23.324Z,32.61
2018-09-06T13:28:51.142Z,32.31
2018-09-06T13:31:18.824Z,32.16
2018-09-06T13:33:46.578Z,32.00
2018-09-06T13:36:14.240Z,31.87
2018-09-06T13:38:41.868Z,31.84
2018-09-06T13:41:09.507Z,31.94
2018-09-06T13:43:37.261Z,33.84
2018-09-06T13:46:04.822Z,36.13
2018-09-06T13:48:32.439Z,37.92
2018-09-06T13:51:00.140Z,38.57
2018-09-06T13:53:27.773Z,38.26
2018-09-06T13:55:55.459Z,39.26
2018-09-06T13:58:23.094Z,40.32
2018-09-06T14:00:50.721Z,40.85
2018-09-06T14:03:18.340Z,41.03
2018-09-06T14:05:46.052Z,41.12
2018-09-06T14:08:13.633Z,40.64
2018-09-06T14:10:41.221Z,40.40
2018-09-06T14:13:08.884Z,40.48
2018-09-06T14:15:36.508Z,40.60
2018-09-06T14:18:04.177Z,39.15
2018-09-06T14:20:31.968Z,37.08
2018-09-06T14:22:59.569Z,35.39
2018-09-06T14:25:27.277Z,34.93
2018-09-06T14:27:54.905Z,35.09
2018-09-06T14:30:22.610Z,34.73
2018-09-06T14:32:50.223Z,34.05
2018-09-06T14:35:17.876Z,33.55
2018-09-06T14:37:45.490Z,33.73
2018-09-06T14:40:13.126Z,33.37
2018-09-06T14:42:40.778Z,33.61
2018-09-06T14:45:08.524Z,34.27
2018-09-06T14:47:36.187Z,35.16
2018-09-06T14:50:04.158Z,35.71
2018-09-06T14:52:31.766Z,36.19
2018-09-06T14:54:59.368Z,36.34
2018-09-06T14:57:27.063Z,35.91
2018-09-06T14:59:54.683Z,35.50
2018-09-06T15:02:22.292Z,35.35
2018-09-06T15:04:50.018Z,35.69
2018-09-06T15:07:17.744Z,35.98
2018-09-06T15:09:45.387Z,36.11
2018-09-06T15:12:13.114Z,35.81
2018-09-06T15:14:40.832Z,34.89
2018-09-06T15:17:08.452Z,33.92
2018-09-06T15:19:36.113Z,33.39
2018-09-06T15:22:03.750Z,33.60
2018-09-06T15:24:31.398Z,33.57
2018-09-06T15:26:59.064Z,32.95
2018-09-06T15:29:26.764Z,32.27
2018-09-06T15:31:54.419Z,31.85
2018-09-06T15:34:22.462Z,31.50
2018-09-06T15:36:50.173Z,31.04
2018-09-06T15:39:17.819Z,30.56
2018-09-06T15:41:45.510Z,30.29
2018-09-06T15:44:13.113Z,29.94
2018-09-06T15:46:40.822Z,29.65
2018-09-06T15:49:08.557Z,29.45
2018-09-06T15:51:36.180Z,29.07
2018-09-06T15:54:03.828Z,28.67
2018-09-06T15:56:31.464Z,28.66
2018-09-06T15:58:59.072Z,28.49
2018-09-06T16:01:26.688Z,28.43
2018-09-06T16:03:54.440Z,28.40
2018-09-06T16:06:22.555Z,28.36
2018-09-06T16:08:50.217Z,28.18
2018-09-06T16:11:18.015Z,28.15
2018-09-06T16:13:45.703Z,28.23
2018-09-06T16:16:13.375Z,28.16
2018-09-06T16:18:41.218Z,28.18
2018-09-06T16:21:08.856Z,28.20
2018-09-06T16:23:36.535Z,28.24
2018-09-06T16:26:04.188Z,28.19
2018-09-06T16:28:31.828Z,28.10
2018-09-06T16:30:59.460Z,28.09
2018-09-06T16:33:27.141Z,28.08
2018-09-06T16:35:54.897Z,28.09
2018-09-06T16:38:22.529Z,28.05
2018-09-06T16:40:50.224Z,28.02
2018-09-06T16:43:17.891Z,27.97
2018-09-06T16:45:45.562Z,27.91
2018-09-06T16:48:13.234Z,27.81
2018-09-06T16:50:40.839Z,27.76
2018-09-06T16:53:08.451Z,27.67
2018-09-06T16:55:36.247Z,27.64
2018-09-06T16:58:03.887Z,27.64
2018-09-06T17:00:31.547Z,27.56
2018-09-06T17:02:59.219Z,27.43
2018-09-06T17:05:26.911Z,27.34
2018-09-06T17:07:54.639Z,27.32
2018-09-06T17:10:22.394Z,27.19
2018-09-06T17:12:50.097Z,27.11
2018-09-06T17:15:17.773Z,27.01
2018-09-06T17:17:45.531Z,26.94
2018-09-06T17:20:13.197Z,26.86
2018-09-06T17:22:40.866Z,26.70
2018-09-06T17:25:08.549Z,26.63
2018-09-06T17:27:36.259Z,26.52
2018-09-06T17:30:04.004Z,26.47
2018-09-06T17:32:31.685Z,26.42
2018-09-06T17:34:59.330Z,26.35
2018-09-06T17:37:26.947Z,26.21
2018-09-06T17:39:54.644Z,26.16
2018-09-06T17:42:22.264Z,26.13
2018-09-06T17:44:49.881Z,26.07
2018-09-06T17:47:17.548Z,26.00
2018-09-06T17:49:45.210Z,25.92
2018-09-06T17:52:12.902Z,25.86
2018-09-06T17:54:40.607Z,25.78
2018-09-06T17:57:08.261Z,25.72
2018-09-06T17:59:35.972Z,25.68
2018-09-06T18:02:03.754Z,25.61
2018-09-06T18:04:31.416Z,25.52
2018-09-06T18:06:59.044Z,25.42
2018-09-06T18:09:26.732Z,25.45
2018-09-06T18:11:54.442Z,25.40
2018-09-06T18:14:22.120Z,25.30
2018-09-06T18:16:49.976Z,25.31
2018-09-06T18:19:17.648Z,25.33
2018-09-06T18:21:45.347Z,25.29
2018-09-06T18:24:13.027Z,25.23
2018-09-06T18:26:40.736Z,25.17
2018-09-06T18:29:08.410Z,25.13
2018-09-06T18:31:36.179Z,25.10
2018-09-06T18:34:04.021Z,25.05
2018-09-06T18:36:31.772Z,24.97
2018-09-06T18:38:59.441Z,24.94
2018-09-06T18:41:27.097Z,24.95
2018-09-06T18:43:54.810Z,24.88
2018-09-06T18:46:22.468Z,24.86
2018-09-06T18:48:50.113Z,24.89
2018-09-06T18:51:17.776Z,24.94
2018-09-06T18:53:45.499Z,24.90
2018-09-06T18:56:13.155Z,24.86
2018-09-06T18:58:40.815Z,24.87
2018-09-06T19:01:08.599Z,24.85
2018-09-06T19:03:36.278Z,24.80
2018-09-06T19:06:03.962Z,24.74
2018-09-06T19:08:31.691Z,24.70
2018-09-06T19:10:59.387Z,24.68
2018-09-06T19:13:27.011Z,24.68
2018-09-06T19:15:54.684Z,24.68
2018-09-06T19:18:22.547Z,24.65
2018-09-06T19:20:50.188Z,24.66
2018-09-06T19:23:17.854Z,24.65
2018-09-06T19:25:45.504Z,24.62
2018-09-06T19:28:13.130Z,24.68
2018-09-06T19:30:40.847Z,24.70
2018-09-06T19:33:08.470Z,24.63
2018-09-06T19:35:36.108Z,24.59
2018-09-06T19:38:04.075Z,24.52
2018-09-06T19:40:31.728Z,24.48
2018-09-06T19:42:59.509Z,24.48
2018-09-06T19:45:27.206Z,24.44
2018-09-06T19:47:54.860Z,24.39
2018-09-06T19:50:22.501Z,24.33
2018-09-06T19:52:50.204Z,24.32
2018-09-06T19:55:17.843Z,24.32
2018-09-06T19:57:45.470Z,24.32
2018-09-06T20:00:13.223Z,24.32
2018-09-06T20:02:40.963Z,24.28
2018-09-06T20:05:08.684Z,24.29
2018-09-06T20:07:36.394Z,24.30
2018-09-06T20:10:04.278Z,24.24
2018-09-06T20:12:31.919Z,24.24
2018-09-06T20:14:59.568Z,24.29
2018-09-06T20:17:27.226Z,24.28
2018-09-06T20:19:54.867Z,24.28
2018-09-06T20:22:22.519Z,24.20
2018-09-06T20:24:50.180Z,24.22
2018-09-06T20:27:17.789Z,24.27
2018-09-06T20:29:45.471Z,24.18
2018-09-06T20:32:13.102Z,24.14
2018-09-06T20:34:40.924Z,24.14
2018-09-06T20:37:08.632Z,24.13
2018-09-06T20:39:36.263Z,24.09
2018-09-06T20:42:04.033Z,24.03
2018-09-06T20:44:31.944Z,23.99
2018-09-06T20:46:59.835Z,24.02
2018-09-06T20:49:27.508Z,23.91
2018-09-06T20:51:55.172Z,23.88
2018-09-06T20:54:22.824Z,23.78
2018-09-06T20:56:50.562Z,23.79
2018-09-06T20:59:18.228Z,23.75
2018-09-06T21:01:46.017Z,23.77
2018-09-06T21:04:13.723Z,23.70
2018-09-06T21:06:41.374Z,23.68
2018-09-06T21:09:09.499Z,23.64
2018-09-06T21:11:37.612Z,23.66
2018-09-06T21:14:05.624Z,23.59
2018-09-06T21:16:33.277Z,23.57
2018-09-06T21:19:00.928Z,23.59
2018-09-06T21:21:28.620Z,23.58
2018-09-06T21:23:56.272Z,23.59
2018-09-06T21:26:23.919Z,23.59
2018-09-06T21:28:51.567Z,23.54
2018-09-06T21:31:19.188Z,23.43
2018-09-06T21:33:46.862Z,23.48
2018-09-06T21:36:14.519Z,23.44
2018-09-06T21:38:42.132Z,23.53
2018-09-06T21:41:09.769Z,23.55
2018-09-06T21:43:37.525Z,23.49
2018-09-06T21:46:05.186Z,23.50
2018-09-06T21:48:32.819Z,23.43
2018-09-06T21:51:00.501Z,23.42
2018-09-06T21:53:28.293Z,23.45
2018-09-06T21:55:55.926Z,23.52
2018-09-06T21:58:23.634Z,23.44
2018-09-06T22:00:51.282Z,23.42
2018-09-06T22:03:24.455Z,23.41
2018-09-06T22:05:52.205Z,23.41
2018-09-06T22:08:19.833Z,23.45
2018-09-06T22:10:47.500Z,23.39
2018-09-06T22:13:15.179Z,23.34
2018-09-06T22:15:42.799Z,23.38
2018-09-06T22:18:10.836Z,23.27
2018-09-06T22:20:38.533Z,23.16
2018-09-06T22:23:06.440Z,22.96
2018-09-06T22:25:34.076Z,23.01
2018-09-06T22:28:01.792Z,22.89
2018-09-06T22:30:29.459Z,22.88
2018-09-06T22:32:57.144Z,22.79
2018-09-06T22:35:24.779Z,22.89
2018-09-06T22:37:52.404Z,22.85
2018-09-06T22:40:20.045Z,22.94
2018-09-06T22:42:47.652Z,22.95
2018-09-06T22:45:15.281Z,22.95
2018-09-06T22:47:42.971Z,23.01
2018-09-06T22:50:10.689Z,23.02
2018-09-06T22:52:38.343Z,23.05
2018-09-06T22:55:06.096Z,23.05
2018-09-06T22:57:33.907Z,23.03
2018-09-06T23:00:01.656Z,22.99
2018-09-06T23:02:34.863Z,23.00
2018-09-06T23:05:02.516Z,23.00
2018-09-06T23:07:30.160Z,23.04
2018-09-06T23:09:57.816Z,23.03
2018-09-06T23:12:25.535Z,23.06
2018-09-06T23:14:53.167Z,23.03
2018-09-06T23:17:20.971Z,22.97
2018-09-06T23:19:48.603Z,22.92
2018-09-06T23:22:16.232Z,22.90
2018-09-06T23:24:44.943Z,22.88
2018-09-06T23:27:12.696Z,22.86
2018-09-06T23:29:40.300Z,22.80
2018-09-06T23:32:07.952Z,22.77
2018-09-06T23:34:36.160Z,22.76
2018-09-06T23:37:04.464Z,22.79
2018-09-06T23:39:32.286Z,22.78
2018-09-06T23:42:00.036Z,22.84
2018-09-06T23:44:27.660Z,22.81
2018-09-06T23:46:55.364Z,22.78
2018-09-06T23:49:23.021Z,22.72
2018-09-06T23:51:50.664Z,22.64
2018-09-06T23:54:18.330Z,22.54
2018-09-06T23:56:45.999Z,22.44
2018-09-06T23:59:13.679Z,22.45
